sensor_id;sensor_type;location;lat;lon;timestamp;temperature;humidity
29917;DHT22;16786;49.466;11.068;2023-11-21T00:00:16;7.70;99.90
29917;DHT22;16786;49.466;11.068;2023-11-21T00:02:44;7.70;99.90
29917;DHT22;16786;49.466;11.068;2023-11-21T00:05:13;7.70;99.90
29917;DHT22;16786;49.466;11.068;2023-11-21T00:07:41;7.70;99.90
29917;DHT22;16786;49.466;11.068;2023-11-21T00:10:10;7.70;99.90
29917;DHT22;16786;49.466;11.068;2023-11-21T00:12:38;7.70;99.90
29917;DHT22;16786;49.466;11.068;2023-11-21T00:15:05;7.70;99.90
29917;DHT22;16786;49.466;11.068;2023-11-21T00:17:32;7.80;99.90
29917;DHT22;16786;49.466;11.068;2023-11-21T00:19:59;7.70;99.90
29917;DHT22;16786;49.466;11.068;2023-11-21T00:22:27;7.80;99.90
29917;DHT22;16786;49.466;11.068;2023-11-21T00:24:54;7.80;99.90
29917;DHT22;16786;49.466;11.068;2023-11-21T00:27:21;7.80;99.90
29917;DHT22;16786;49.466;11.068;2023-11-21T00:29:47;7.80;99.90
29917;DHT22;16786;49.466;11.068;2023-11-21T00:32:14;7.80;99.90
29917;DHT22;16786;49.466;11.068;2023-11-21T00:34:42;7.90;99.90
29917;DHT22;16786;49.466;11.068;2023-11-21T00:37:09;7.90;99.90
29917;DHT22;16786;49.466;11.068;2023-11-21T00:39:36;7.90;99.90
29917;DHT22;16786;49.466;11.068;2023-11-21T00:42:04;7.90;99.90
29917;DHT22;16786;49.466;11.068;2023-11-21T00:44:31;8.00;99.90
29917;DHT22;16786;49.466;11.068;2023-11-21T00:46:58;8.00;99.90
29917;DHT22;16786;49.466;11.068;2023-11-21T00:49:25;8.00;99.90
29917;DHT22;16786;49.466;11.068;2023-11-21T00:51:52;8.00;99.90
29917;DHT22;16786;49.466;11.068;2023-11-21T00:54:19;8.00;99.90
29917;DHT22;16786;49.466;11.068;2023-11-21T00:56:46;8.00;99.90
29917;DHT22;16786;49.466;11.068;2023-11-21T00:59:14;8.00;99.90
29917;DHT22;16786;49.466;11.068;2023-11-21T01:01:41;8.00;99.90
29917;DHT22;16786;49.466;11.068;2023-11-21T01:04:09;8.00;99.90
29917;DHT22;16786;49.466;11.068;2023-11-21T01:06:36;8.00;99.90
29917;DHT22;16786;49.466;11.068;2023-11-21T01:09:03;8.00;99.90
29917;DHT22;16786;49.466;11.068;2023-11-21T01:11:35;8.00;99.90
29917;DHT22;16786;49.466;11.068;2023-11-21T01:14:04;8.10;99.90
29917;DHT22;16786;49.466;11.068;2023-11-21T01:16:31;8.10;99.90
29917;DHT22;16786;49.466;11.068;2023-11-21T01:19:03;8.00;99.90
29917;DHT22;16786;49.466;11.068;2023-11-21T01:21:31;8.00;99.90
29917;DHT22;16786;49.466;11.068;2023-11-21T01:23:59;8.00;99.90
29917;DHT22;16786;49.466;11.068;2023-11-21T01:26:26;8.00;99.90
29917;DHT22;16786;49.466;11.068;2023-11-21T01:28:52;8.00;99.90
29917;DHT22;16786;49.466;11.068;2023-11-21T01:31:19;8.00;99.90
29917;DHT22;16786;49.466;11.068;2023-11-21T01:33:47;8.00;99.90
29917;DHT22;16786;49.466;11.068;2023-11-21T01:36:15;7.90;99.90
29917;DHT22;16786;49.466;11.068;2023-11-21T01:38:44;7.90;99.90
29917;DHT22;16786;49.466;11.068;2023-11-21T01:41:12;7.80;99.90
29917;DHT22;16786;49.466;11.068;2023-11-21T01:43:40;7.80;99.90
29917;DHT22;16786;49.466;11.068;2023-11-21T01:46:08;7.80;99.90
29917;DHT22;16786;49.466;11.068;2023-11-21T01:48:36;7.80;99.90
29917;DHT22;16786;49.466;11.068;2023-11-21T01:51:03;7.80;99.90
29917;DHT22;16786;49.466;11.068;2023-11-21T01:53:30;7.70;99.90
29917;DHT22;16786;49.466;11.068;2023-11-21T01:55:57;7.70;99.90
29917;DHT22;16786;49.466;11.068;2023-11-21T01:58:25;7.70;99.90
29917;DHT22;16786;49.466;11.068;2023-11-21T02:00:53;7.70;99.90
29917;DHT22;16786;49.466;11.068;2023-11-21T02:03:21;7.70;99.90
29917;DHT22;16786;49.466;11.068;2023-11-21T02:05:49;7.70;99.90
29917;DHT22;16786;49.466;11.068;2023-11-21T02:08:16;7.70;99.90
29917;DHT22;16786;49.466;11.068;2023-11-21T02:10:43;7.70;99.90
29917;DHT22;16786;49.466;11.068;2023-11-21T02:13:10;7.70;99.90
29917;DHT22;16786;49.466;11.068;2023-11-21T02:15:38;7.70;99.90
29917;DHT22;16786;49.466;11.068;2023-11-21T02:18:05;7.70;99.90
29917;DHT22;16786;49.466;11.068;2023-11-21T02:20:33;7.80;99.90
29917;DHT22;16786;49.466;11.068;2023-11-21T02:23:03;7.80;99.90
29917;DHT22;16786;49.466;11.068;2023-11-21T02:25:33;7.70;99.90
29917;DHT22;16786;49.466;11.068;2023-11-21T02:28:01;7.70;99.90
29917;DHT22;16786;49.466;11.068;2023-11-21T02:30:30;7.70;99.90
29917;DHT22;16786;49.466;11.068;2023-11-21T02:33:02;7.70;99.90
29917;DHT22;16786;49.466;11.068;2023-11-21T02:35:30;7.80;99.90
29917;DHT22;16786;49.466;11.068;2023-11-21T02:37:58;7.80;99.90
29917;DHT22;16786;49.466;11.068;2023-11-21T02:40:25;7.80;99.90
29917;DHT22;16786;49.466;11.068;2023-11-21T02:42:54;7.90;99.90
29917;DHT22;16786;49.466;11.068;2023-11-21T02:45:21;7.90;99.90
29917;DHT22;16786;49.466;11.068;2023-11-21T02:47:49;7.90;99.90
29917;DHT22;16786;49.466;11.068;2023-11-21T02:50:17;7.90;99.90
29917;DHT22;16786;49.466;11.068;2023-11-21T02:52:46;7.90;99.90
29917;DHT22;16786;49.466;11.068;2023-11-21T02:55:13;7.90;99.90
29917;DHT22;16786;49.466;11.068;2023-11-21T02:57:41;7.90;99.90
29917;DHT22;16786;49.466;11.068;2023-11-21T03:00:08;7.80;99.90
29917;DHT22;16786;49.466;11.068;2023-11-21T03:02:37;7.90;99.90
29917;DHT22;16786;49.466;11.068;2023-11-21T03:05:07;7.90;99.90
29917;DHT22;16786;49.466;11.068;2023-11-21T03:07:39;7.90;99.90
29917;DHT22;16786;49.466;11.068;2023-11-21T03:10:08;7.90;99.90
29917;DHT22;16786;49.466;11.068;2023-11-21T03:12:39;7.90;99.90
29917;DHT22;16786;49.466;11.068;2023-11-21T03:15:07;7.90;99.90
29917;DHT22;16786;49.466;11.068;2023-11-21T03:17:34;7.90;99.90
29917;DHT22;16786;49.466;11.068;2023-11-21T03:20:03;7.90;99.90
29917;DHT22;16786;49.466;11.068;2023-11-21T03:22:31;7.90;99.90
29917;DHT22;16786;49.466;11.068;2023-11-21T03:24:58;7.90;99.90
29917;DHT22;16786;49.466;11.068;2023-11-21T03:27:26;7.90;99.90
29917;DHT22;16786;49.466;11.068;2023-11-21T03:29:53;7.90;99.90
29917;DHT22;16786;49.466;11.068;2023-11-21T03:32:21;8.00;99.90
29917;DHT22;16786;49.466;11.068;2023-11-21T03:34:57;7.90;99.90
29917;DHT22;16786;49.466;11.068;2023-11-21T03:37:25;8.00;99.90
29917;DHT22;16786;49.466;11.068;2023-11-21T03:39:57;7.90;99.90
29917;DHT22;16786;49.466;11.068;2023-11-21T03:42:25;7.90;99.90
29917;DHT22;16786;49.466;11.068;2023-11-21T03:44:54;7.90;99.90
29917;DHT22;16786;49.466;11.068;2023-11-21T03:47:21;7.90;99.90
29917;DHT22;16786;49.466;11.068;2023-11-21T03:49:49;8.00;99.90
29917;DHT22;16786;49.466;11.068;2023-11-21T03:52:16;8.00;99.90
29917;DHT22;16786;49.466;11.068;2023-11-21T03:54:43;7.90;99.90
29917;DHT22;16786;49.466;11.068;2023-11-21T03:57:11;7.90;99.90
29917;DHT22;16786;49.466;11.068;2023-11-21T03:59:42;7.90;99.90
29917;DHT22;16786;49.466;11.068;2023-11-21T04:02:09;7.80;99.90
29917;DHT22;16786;49.466;11.068;2023-11-21T04:04:36;7.80;99.90
29917;DHT22;16786;49.466;11.068;2023-11-21T04:07:04;7.70;99.90
29917;DHT22;16786;49.466;11.068;2023-11-21T04:09:31;7.80;99.90
29917;DHT22;16786;49.466;11.068;2023-11-21T04:11:58;7.70;99.90
29917;DHT22;16786;49.466;11.068;2023-11-21T04:14:26;7.60;99.90
29917;DHT22;16786;49.466;11.068;2023-11-21T04:16:53;7.70;99.90
29917;DHT22;16786;49.466;11.068;2023-11-21T04:19:21;7.60;99.90
29917;DHT22;16786;49.466;11.068;2023-11-21T04:21:48;7.70;99.90
29917;DHT22;16786;49.466;11.068;2023-11-21T04:24:15;7.60;99.90
29917;DHT22;16786;49.466;11.068;2023-11-21T04:26:43;7.60;99.90
29917;DHT22;16786;49.466;11.068;2023-11-21T04:29:10;7.60;99.90
29917;DHT22;16786;49.466;11.068;2023-11-21T04:31:37;7.60;99.90
29917;DHT22;16786;49.466;11.068;2023-11-21T04:34:05;7.60;99.90
29917;DHT22;16786;49.466;11.068;2023-11-21T04:36:32;7.60;99.90
29917;DHT22;16786;49.466;11.068;2023-11-21T04:38:59;7.60;99.90
29917;DHT22;16786;49.466;11.068;2023-11-21T04:41:26;7.60;99.90
29917;DHT22;16786;49.466;11.068;2023-11-21T04:43:53;7.60;99.90
29917;DHT22;16786;49.466;11.068;2023-11-21T04:46:20;7.60;99.90
29917;DHT22;16786;49.466;11.068;2023-11-21T04:48:47;7.60;99.90
29917;DHT22;16786;49.466;11.068;2023-11-21T04:51:14;7.60;99.90
29917;DHT22;16786;49.466;11.068;2023-11-21T04:53:41;7.60;99.90
29917;DHT22;16786;49.466;11.068;2023-11-21T04:56:08;7.60;99.90
29917;DHT22;16786;49.466;11.068;2023-11-21T04:58:35;7.60;99.90
29917;DHT22;16786;49.466;11.068;2023-11-21T05:01:02;7.60;99.90
29917;DHT22;16786;49.466;11.068;2023-11-21T05:03:34;7.70;99.90
29917;DHT22;16786;49.466;11.068;2023-11-21T05:06:01;7.70;99.90
29917;DHT22;16786;49.466;11.068;2023-11-21T05:08:29;7.70;99.90
29917;DHT22;16786;49.466;11.068;2023-11-21T05:10:56;7.70;99.90
29917;DHT22;16786;49.466;11.068;2023-11-21T05:13:23;7.70;99.90
29917;DHT22;16786;49.466;11.068;2023-11-21T05:15:55;7.70;99.90
29917;DHT22;16786;49.466;11.068;2023-11-21T05:18:25;7.70;99.90
29917;DHT22;16786;49.466;11.068;2023-11-21T05:20:58;7.70;99.90
29917;DHT22;16786;49.466;11.068;2023-11-21T05:23:25;7.70;99.90
29917;DHT22;16786;49.466;11.068;2023-11-21T05:25:52;7.70;99.90
29917;DHT22;16786;49.466;11.068;2023-11-21T05:28:19;7.70;99.90
29917;DHT22;16786;49.466;11.068;2023-11-21T05:30:46;7.70;99.90
29917;DHT22;16786;49.466;11.068;2023-11-21T05:33:13;7.70;99.90
29917;DHT22;16786;49.466;11.068;2023-11-21T05:35:40;7.70;99.90
29917;DHT22;16786;49.466;11.068;2023-11-21T05:38:07;7.70;99.90
29917;DHT22;16786;49.466;11.068;2023-11-21T05:40:34;7.70;99.90
29917;DHT22;16786;49.466;11.068;2023-11-21T05:43:01;7.70;99.90
29917;DHT22;16786;49.466;11.068;2023-11-21T05:45:28;7.70;99.90
29917;DHT22;16786;49.466;11.068;2023-11-21T05:47:58;7.70;99.90
29917;DHT22;16786;49.466;11.068;2023-11-21T05:50:25;7.70;99.90
29917;DHT22;16786;49.466;11.068;2023-11-21T05:52:52;7.70;99.90
29917;DHT22;16786;49.466;11.068;2023-11-21T05:55:19;7.70;99.90
29917;DHT22;16786;49.466;11.068;2023-11-21T05:57:48;7.70;99.90
29917;DHT22;16786;49.466;11.068;2023-11-21T06:00:15;7.70;99.90
29917;DHT22;16786;49.466;11.068;2023-11-21T06:02:49;7.70;99.90
29917;DHT22;16786;49.466;11.068;2023-11-21T06:05:19;7.70;99.90
29917;DHT22;16786;49.466;11.068;2023-11-21T06:07:46;7.70;99.90
29917;DHT22;16786;49.466;11.068;2023-11-21T06:10:14;7.70;99.90
29917;DHT22;16786;49.466;11.068;2023-11-21T06:12:41;7.70;99.90
29917;DHT22;16786;49.466;11.068;2023-11-21T06:15:10;7.70;99.90
29917;DHT22;16786;49.466;11.068;2023-11-21T06:17:42;7.70;99.90
29917;DHT22;16786;49.466;11.068;2023-11-21T06:20:10;7.70;99.90
29917;DHT22;16786;49.466;11.068;2023-11-21T06:22:42;7.80;99.90
29917;DHT22;16786;49.466;11.068;2023-11-21T06:25:11;7.80;99.90
29917;DHT22;16786;49.466;11.068;2023-11-21T06:27:41;7.80;99.90
29917;DHT22;16786;49.466;11.068;2023-11-21T06:30:09;7.80;99.90
29917;DHT22;16786;49.466;11.068;2023-11-21T06:32:37;7.80;99.90
29917;DHT22;16786;49.466;11.068;2023-11-21T06:35:05;7.80;99.90
29917;DHT22;16786;49.466;11.068;2023-11-21T06:37:33;7.80;99.90
29917;DHT22;16786;49.466;11.068;2023-11-21T06:40:01;7.80;99.90
29917;DHT22;16786;49.466;11.068;2023-11-21T06:42:31;7.80;99.90
29917;DHT22;16786;49.466;11.068;2023-11-21T06:44:58;7.80;99.90
29917;DHT22;16786;49.466;11.068;2023-11-21T06:47:25;7.80;99.90
29917;DHT22;16786;49.466;11.068;2023-11-21T06:49:53;7.70;99.90
29917;DHT22;16786;49.466;11.068;2023-11-21T06:52:20;7.80;99.90
29917;DHT22;16786;49.466;11.068;2023-11-21T06:54:48;7.80;99.90
29917;DHT22;16786;49.466;11.068;2023-11-21T06:57:18;7.80;99.90
29917;DHT22;16786;49.466;11.068;2023-11-21T06:59:45;7.90;99.90
29917;DHT22;16786;49.466;11.068;2023-11-21T07:02:12;7.90;99.90
29917;DHT22;16786;49.466;11.068;2023-11-21T07:04:39;8.00;99.90
29917;DHT22;16786;49.466;11.068;2023-11-21T07:07:06;8.00;99.90
29917;DHT22;16786;49.466;11.068;2023-11-21T07:09:36;8.00;99.90
29917;DHT22;16786;49.466;11.068;2023-11-21T07:12:04;8.10;99.90
29917;DHT22;16786;49.466;11.068;2023-11-21T07:14:34;8.10;99.90
29917;DHT22;16786;49.466;11.068;2023-11-21T07:17:01;8.20;99.90
29917;DHT22;16786;49.466;11.068;2023-11-21T07:19:28;8.20;99.90
29917;DHT22;16786;49.466;11.068;2023-11-21T07:21:57;8.20;99.90
29917;DHT22;16786;49.466;11.068;2023-11-21T07:24:24;8.20;99.90
29917;DHT22;16786;49.466;11.068;2023-11-21T07:26:53;8.20;99.90
29917;DHT22;16786;49.466;11.068;2023-11-21T07:29:24;8.30;99.90
29917;DHT22;16786;49.466;11.068;2023-11-21T07:31:56;8.30;99.90
29917;DHT22;16786;49.466;11.068;2023-11-21T07:34:23;8.30;99.90
29917;DHT22;16786;49.466;11.068;2023-11-21T07:36:50;8.30;99.90
29917;DHT22;16786;49.466;11.068;2023-11-21T07:39:18;8.30;99.90
29917;DHT22;16786;49.466;11.068;2023-11-21T07:41:45;8.30;99.90
29917;DHT22;16786;49.466;11.068;2023-11-21T07:44:18;8.40;99.90
29917;DHT22;16786;49.466;11.068;2023-11-21T07:46:47;8.40;99.90
29917;DHT22;16786;49.466;11.068;2023-11-21T07:49:14;8.50;99.90
29917;DHT22;16786;49.466;11.068;2023-11-21T07:51:47;8.40;99.90
29917;DHT22;16786;49.466;11.068;2023-11-21T07:54:14;8.40;99.90
29917;DHT22;16786;49.466;11.068;2023-11-21T07:56:42;8.50;99.90
29917;DHT22;16786;49.466;11.068;2023-11-21T07:59:09;8.50;99.90
29917;DHT22;16786;49.466;11.068;2023-11-21T08:01:37;8.50;99.90
29917;DHT22;16786;49.466;11.068;2023-11-21T08:04:04;8.60;99.90
29917;DHT22;16786;49.466;11.068;2023-11-21T08:06:31;8.70;99.90
29917;DHT22;16786;49.466;11.068;2023-11-21T08:09:00;8.70;99.90
29917;DHT22;16786;49.466;11.068;2023-11-21T08:11:27;8.80;99.90
29917;DHT22;16786;49.466;11.068;2023-11-21T08:13:56;8.90;99.90
29917;DHT22;16786;49.466;11.068;2023-11-21T08:16:23;8.90;99.90
29917;DHT22;16786;49.466;11.068;2023-11-21T08:18:51;8.90;99.90
29917;DHT22;16786;49.466;11.068;2023-11-21T08:21:18;9.00;99.90
29917;DHT22;16786;49.466;11.068;2023-11-21T08:23:46;9.00;99.90
29917;DHT22;16786;49.466;11.068;2023-11-21T08:26:16;9.00;99.90
29917;DHT22;16786;49.466;11.068;2023-11-21T08:28:45;9.00;99.90
29917;DHT22;16786;49.466;11.068;2023-11-21T08:31:12;9.00;99.90
29917;DHT22;16786;49.466;11.068;2023-11-21T08:33:41;9.10;99.90
29917;DHT22;16786;49.466;11.068;2023-11-21T08:36:09;9.10;99.90
29917;DHT22;16786;49.466;11.068;2023-11-21T08:38:37;9.00;99.90
29917;DHT22;16786;49.466;11.068;2023-11-21T08:41:06;9.10;99.90
29917;DHT22;16786;49.466;11.068;2023-11-21T08:43:38;9.10;99.90
29917;DHT22;16786;49.466;11.068;2023-11-21T08:46:08;9.10;99.90
29917;DHT22;16786;49.466;11.068;2023-11-21T08:48:40;9.20;99.90
29917;DHT22;16786;49.466;11.068;2023-11-21T08:51:10;9.30;99.90
29917;DHT22;16786;49.466;11.068;2023-11-21T08:53:41;9.30;99.90
29917;DHT22;16786;49.466;11.068;2023-11-21T08:56:12;9.40;99.90
29917;DHT22;16786;49.466;11.068;2023-11-21T08:58:40;9.50;99.90
29917;DHT22;16786;49.466;11.068;2023-11-21T09:01:08;9.50;99.90
29917;DHT22;16786;49.466;11.068;2023-11-21T09:03:35;9.50;99.90
29917;DHT22;16786;49.466;11.068;2023-11-21T09:06:02;9.50;99.90
29917;DHT22;16786;49.466;11.068;2023-11-21T09:08:30;9.50;99.90
29917;DHT22;16786;49.466;11.068;2023-11-21T09:10:57;9.60;99.90
29917;DHT22;16786;49.466;11.068;2023-11-21T09:13:24;9.60;99.90
29917;DHT22;16786;49.466;11.068;2023-11-21T09:15:52;9.70;99.90
29917;DHT22;16786;49.466;11.068;2023-11-21T09:18:19;9.80;99.90
29917;DHT22;16786;49.466;11.068;2023-11-21T09:20:46;9.70;99.90
29917;DHT22;16786;49.466;11.068;2023-11-21T09:23:14;9.70;99.90
29917;DHT22;16786;49.466;11.068;2023-11-21T09:25:41;9.90;99.90
29917;DHT22;16786;49.466;11.068;2023-11-21T09:28:09;9.90;99.90
29917;DHT22;16786;49.466;11.068;2023-11-21T09:30:36;9.90;99.90
29917;DHT22;16786;49.466;11.068;2023-11-21T09:33:03;9.80;99.90
29917;DHT22;16786;49.466;11.068;2023-11-21T09:35:34;9.80;99.90
29917;DHT22;16786;49.466;11.068;2023-11-21T09:38:01;9.90;99.90
29917;DHT22;16786;49.466;11.068;2023-11-21T09:40:32;10.00;99.90
29917;DHT22;16786;49.466;11.068;2023-11-21T09:43:01;10.10;99.90
29917;DHT22;16786;49.466;11.068;2023-11-21T09:45:38;10.00;99.90
29917;DHT22;16786;49.466;11.068;2023-11-21T09:48:05;10.10;99.90
29917;DHT22;16786;49.466;11.068;2023-11-21T09:50:35;10.10;99.90
29917;DHT22;16786;49.466;11.068;2023-11-21T09:53:18;10.10;99.90
29917;DHT22;16786;49.466;11.068;2023-11-21T09:55:49;10.10;99.90
29917;DHT22;16786;49.466;11.068;2023-11-21T09:58:19;10.20;99.90
29917;DHT22;16786;49.466;11.068;2023-11-21T10:00:49;10.30;99.90
29917;DHT22;16786;49.466;11.068;2023-11-21T10:03:17;10.40;99.90
29917;DHT22;16786;49.466;11.068;2023-11-21T10:05:45;10.60;99.90
29917;DHT22;16786;49.466;11.068;2023-11-21T10:08:15;10.70;99.90
29917;DHT22;16786;49.466;11.068;2023-11-21T10:10:44;10.70;99.90
29917;DHT22;16786;49.466;11.068;2023-11-21T10:13:15;10.90;99.90
29917;DHT22;16786;49.466;11.068;2023-11-21T10:15:44;10.90;99.90
29917;DHT22;16786;49.466;11.068;2023-11-21T10:18:16;10.90;99.90
29917;DHT22;16786;49.466;11.068;2023-11-21T10:20:44;10.90;99.90
29917;DHT22;16786;49.466;11.068;2023-11-21T10:23:23;11.00;99.90
29917;DHT22;16786;49.466;11.068;2023-11-21T10:25:54;11.00;99.90
29917;DHT22;16786;49.466;11.068;2023-11-21T10:28:24;11.10;99.90
29917;DHT22;16786;49.466;11.068;2023-11-21T10:30:51;11.20;99.90
29917;DHT22;16786;49.466;11.068;2023-11-21T10:33:27;11.30;99.90
29917;DHT22;16786;49.466;11.068;2023-11-21T10:35:56;11.50;99.90
29917;DHT22;16786;49.466;11.068;2023-11-21T10:38:23;11.50;99.90
29917;DHT22;16786;49.466;11.068;2023-11-21T10:40:52;11.60;99.90
29917;DHT22;16786;49.466;11.068;2023-11-21T10:43:21;11.50;99.90
29917;DHT22;16786;49.466;11.068;2023-11-21T10:45:51;11.40;99.90
29917;DHT22;16786;49.466;11.068;2023-11-21T10:48:18;11.50;99.90
29917;DHT22;16786;49.466;11.068;2023-11-21T10:50:47;11.60;99.90
29917;DHT22;16786;49.466;11.068;2023-11-21T10:53:15;11.70;99.90
29917;DHT22;16786;49.466;11.068;2023-11-21T10:55:43;11.80;99.90
29917;DHT22;16786;49.466;11.068;2023-11-21T10:58:14;11.80;99.90
29917;DHT22;16786;49.466;11.068;2023-11-21T11:00:41;11.70;99.90
29917;DHT22;16786;49.466;11.068;2023-11-21T11:03:12;11.70;99.90
29917;DHT22;16786;49.466;11.068;2023-11-21T11:05:44;11.80;99.90
29917;DHT22;16786;49.466;11.068;2023-11-21T11:08:21;11.70;99.90
29917;DHT22;16786;49.466;11.068;2023-11-21T11:10:53;11.80;99.90
29917;DHT22;16786;49.466;11.068;2023-11-21T11:13:21;11.90;99.90
29917;DHT22;16786;49.466;11.068;2023-11-21T11:15:50;11.90;99.90
29917;DHT22;16786;49.466;11.068;2023-11-21T11:18:18;12.00;99.90
29917;DHT22;16786;49.466;11.068;2023-11-21T11:20:49;11.90;99.90
29917;DHT22;16786;49.466;11.068;2023-11-21T11:34:54;11.40;99.90
29917;DHT22;16786;49.466;11.068;2023-11-21T11:37:24;11.20;99.90
29917;DHT22;16786;49.466;11.068;2023-11-21T11:39:51;11.10;99.90
29917;DHT22;16786;49.466;11.068;2023-11-21T11:42:19;10.90;99.90
29917;DHT22;16786;49.466;11.068;2023-11-21T11:44:48;10.90;99.90
29917;DHT22;16786;49.466;11.068;2023-11-21T11:47:29;10.70;99.90
29917;DHT22;16786;49.466;11.068;2023-11-21T11:50:12;10.50;99.90
29917;DHT22;16786;49.466;11.068;2023-11-21T11:52:48;10.60;99.90
29917;DHT22;16786;49.466;11.068;2023-11-21T11:55:19;10.60;99.90
29917;DHT22;16786;49.466;11.068;2023-11-21T11:57:51;10.60;99.90
29917;DHT22;16786;49.466;11.068;2023-11-21T12:00:34;10.50;99.90
29917;DHT22;16786;49.466;11.068;2023-11-21T12:03:05;10.60;99.90
29917;DHT22;16786;49.466;11.068;2023-11-21T12:05:35;10.70;99.90
29917;DHT22;16786;49.466;11.068;2023-11-21T12:08:07;10.80;99.90
29917;DHT22;16786;49.466;11.068;2023-11-21T12:10:36;10.80;99.90
29917;DHT22;16786;49.466;11.068;2023-11-21T12:13:06;10.80;99.90
29917;DHT22;16786;49.466;11.068;2023-11-21T12:15:38;10.90;99.90
29917;DHT22;16786;49.466;11.068;2023-11-21T12:18:07;11.00;99.90
29917;DHT22;16786;49.466;11.068;2023-11-21T12:20:35;11.10;99.90
29917;DHT22;16786;49.466;11.068;2023-11-21T12:23:09;11.10;99.90
29917;DHT22;16786;49.466;11.068;2023-11-21T12:25:38;11.10;99.90
29917;DHT22;16786;49.466;11.068;2023-11-21T12:28:09;11.30;99.90
29917;DHT22;16786;49.466;11.068;2023-11-21T12:30:36;11.40;99.90
29917;DHT22;16786;49.466;11.068;2023-11-21T12:33:06;11.40;99.90
29917;DHT22;16786;49.466;11.068;2023-11-21T12:35:36;11.40;99.90
29917;DHT22;16786;49.466;11.068;2023-11-21T12:38:05;11.30;99.90
29917;DHT22;16786;49.466;11.068;2023-11-21T12:40:33;11.20;99.90
29917;DHT22;16786;49.466;11.068;2023-11-21T12:43:03;11.10;99.90
29917;DHT22;16786;49.466;11.068;2023-11-21T12:45:32;11.20;99.90
29917;DHT22;16786;49.466;11.068;2023-11-21T12:48:04;11.00;99.90
29917;DHT22;16786;49.466;11.068;2023-11-21T12:50:36;10.90;99.90
29917;DHT22;16786;49.466;11.068;2023-11-21T12:53:06;11.00;99.90
29917;DHT22;16786;49.466;11.068;2023-11-21T12:55:36;11.00;99.90
29917;DHT22;16786;49.466;11.068;2023-11-21T12:58:09;10.90;99.90
29917;DHT22;16786;49.466;11.068;2023-11-21T13:00:46;10.80;99.90
29917;DHT22;16786;49.466;11.068;2023-11-21T13:03:15;10.80;99.90
29917;DHT22;16786;49.466;11.068;2023-11-21T13:05:47;10.80;99.90
29917;DHT22;16786;49.466;11.068;2023-11-21T13:08:20;10.80;99.90
29917;DHT22;16786;49.466;11.068;2023-11-21T13:10:51;10.80;99.90
29917;DHT22;16786;49.466;11.068;2023-11-21T13:13:19;10.80;99.90
29917;DHT22;16786;49.466;11.068;2023-11-21T13:15:55;10.80;99.90
29917;DHT22;16786;49.466;11.068;2023-11-21T13:18:24;10.90;99.90
29917;DHT22;16786;49.466;11.068;2023-11-21T13:20:58;10.90;99.90
29917;DHT22;16786;49.466;11.068;2023-11-21T13:23:26;11.00;99.90
29917;DHT22;16786;49.466;11.068;2023-11-21T13:25:54;11.00;99.90
29917;DHT22;16786;49.466;11.068;2023-11-21T13:28:31;11.10;99.90
29917;DHT22;16786;49.466;11.068;2023-11-21T13:31:02;11.30;99.90
29917;DHT22;16786;49.466;11.068;2023-11-21T13:33:36;11.30;99.90
29917;DHT22;16786;49.466;11.068;2023-11-21T13:36:10;11.20;99.90
29917;DHT22;16786;49.466;11.068;2023-11-21T13:38:38;11.40;99.90
29917;DHT22;16786;49.466;11.068;2023-11-21T13:41:10;11.70;99.90
29917;DHT22;16786;49.466;11.068;2023-11-21T13:43:39;12.00;99.90
29917;DHT22;16786;49.466;11.068;2023-11-21T13:46:06;13.30;99.90
29917;DHT22;16786;49.466;11.068;2023-11-21T13:48:42;13.70;99.90
29917;DHT22;16786;49.466;11.068;2023-11-21T13:51:18;13.90;99.90
29917;DHT22;16786;49.466;11.068;2023-11-21T13:53:47;13.80;99.90
29917;DHT22;16786;49.466;11.068;2023-11-21T13:56:16;13.60;99.90
29917;DHT22;16786;49.466;11.068;2023-11-21T13:58:48;13.50;99.90
29917;DHT22;16786;49.466;11.068;2023-11-21T14:01:19;13.20;99.90
29917;DHT22;16786;49.466;11.068;2023-11-21T14:04:00;13.10;99.90
29917;DHT22;16786;49.466;11.068;2023-11-21T14:06:44;13.00;99.90
29917;DHT22;16786;49.466;11.068;2023-11-21T14:09:16;13.00;99.90
29917;DHT22;16786;49.466;11.068;2023-11-21T14:11:53;13.00;99.90
29917;DHT22;16786;49.466;11.068;2023-11-21T14:14:21;12.90;99.90
29917;DHT22;16786;49.466;11.068;2023-11-21T14:16:49;13.30;99.90
29917;DHT22;16786;49.466;11.068;2023-11-21T14:19:18;14.40;99.90
29917;DHT22;16786;49.466;11.068;2023-11-21T14:21:45;14.50;99.90
29917;DHT22;16786;49.466;11.068;2023-11-21T14:24:14;14.20;99.90
29917;DHT22;16786;49.466;11.068;2023-11-21T14:26:47;13.80;99.90
29917;DHT22;16786;49.466;11.068;2023-11-21T14:29:16;13.10;99.90
29917;DHT22;16786;49.466;11.068;2023-11-21T14:31:47;12.80;99.90
29917;DHT22;16786;49.466;11.068;2023-11-21T14:34:15;12.40;99.90
29917;DHT22;16786;49.466;11.068;2023-11-21T14:36:47;12.00;99.90
29917;DHT22;16786;49.466;11.068;2023-11-21T14:39:16;11.70;99.90
29917;DHT22;16786;49.466;11.068;2023-11-21T14:42:04;11.50;99.90
29917;DHT22;16786;49.466;11.068;2023-11-21T14:44:31;11.30;99.90
29917;DHT22;16786;49.466;11.068;2023-11-21T14:47:04;11.20;99.90
29917;DHT22;16786;49.466;11.068;2023-11-21T14:49:40;11.10;99.90
29917;DHT22;16786;49.466;11.068;2023-11-21T14:52:19;11.10;99.90
29917;DHT22;16786;49.466;11.068;2023-11-21T14:55:13;11.10;99.90
29917;DHT22;16786;49.466;11.068;2023-11-21T14:57:46;11.10;99.90
29917;DHT22;16786;49.466;11.068;2023-11-21T15:00:20;11.40;99.90
29917;DHT22;16786;49.466;11.068;2023-11-21T15:03:04;11.50;99.90
29917;DHT22;16786;49.466;11.068;2023-11-21T15:05:32;11.80;99.90
29917;DHT22;16786;49.466;11.068;2023-11-21T15:08:02;12.00;99.90
29917;DHT22;16786;49.466;11.068;2023-11-21T15:10:45;12.00;99.90
29917;DHT22;16786;49.466;11.068;2023-11-21T15:13:16;11.80;99.90
29917;DHT22;16786;49.466;11.068;2023-11-21T15:15:43;11.80;99.90
29917;DHT22;16786;49.466;11.068;2023-11-21T15:18:10;11.60;99.90
29917;DHT22;16786;49.466;11.068;2023-11-21T15:20:40;11.30;99.90
29917;DHT22;16786;49.466;11.068;2023-11-21T15:23:11;11.00;99.90
29917;DHT22;16786;49.466;11.068;2023-11-21T15:25:40;10.70;99.90
29917;DHT22;16786;49.466;11.068;2023-11-21T15:28:07;10.50;99.90
29917;DHT22;16786;49.466;11.068;2023-11-21T15:30:34;10.20;99.90
29917;DHT22;16786;49.466;11.068;2023-11-21T15:33:02;10.00;99.90
29917;DHT22;16786;49.466;11.068;2023-11-21T15:35:30;9.80;99.90
29917;DHT22;16786;49.466;11.068;2023-11-21T15:37:59;9.60;99.90
29917;DHT22;16786;49.466;11.068;2023-11-21T15:40:27;9.50;99.90
29917;DHT22;16786;49.466;11.068;2023-11-21T15:42:54;9.50;99.90
29917;DHT22;16786;49.466;11.068;2023-11-21T15:45:21;9.40;99.90
29917;DHT22;16786;49.466;11.068;2023-11-21T15:47:52;9.30;99.90